Time;durP1;ratioP1;P1;durP2;ratioP2;P2;SDS_P1;SDS_P2;PMS_P1;PMS_P2;Temp;Humidity;BMP_temperature;BMP_pressure;BME280_temperature;BME280_humidity;BME280_pressure;Samples;Min_cycle;Max_cycle;Signal;HPM_P1;HPM_P2
2022/04/09 00:01:06;;;;;;;9.02;1.48;;;5.00;99.90;;;;;;5010707;28;20074;-74
2022/04/09 00:03:32;;;;;;;11.68;1.73;;;5.00;99.90;;;;;;5013909;28;20048;-74
2022/04/09 00:05:58;;;;;;;10.95;2.38;;;5.00;99.90;;;;;;5011546;28;20041;-73
2022/04/09 00:08:24;;;;;;;9.82;2.22;;;4.90;99.90;;;;;;5010979;28;20128;-74
2022/04/09 00:10:49;;;;;;;10.05;1.60;;;4.90;99.90;;;;;;5029210;28;20050;-73
2022/04/09 00:13:15;;;;;;;11.80;2.03;;;4.90;99.90;;;;;;5009020;28;20482;-74
2022/04/09 00:15:41;;;;;;;9.68;1.65;;;4.90;99.90;;;;;;5027576;28;20045;-74
2022/04/09 00:18:07;;;;;;;9.70;2.00;;;4.80;99.90;;;;;;5006556;28;20048;-74
2022/04/09 00:20:32;;;;;;;5.72;1.35;;;4.80;99.90;;;;;;5007141;28;20045;-74
2022/04/09 00:22:59;;;;;;;11.15;1.92;;;4.80;99.90;;;;;;5014615;28;20436;-74
2022/04/09 00:25:26;;;;;;;13.43;2.00;;;4.80;99.90;;;;;;5031920;28;20045;-74
2022/04/09 00:27:53;;;;;;;11.60;1.80;;;4.80;99.90;;;;;;5005172;28;20813;-74
2022/04/09 00:30:19;;;;;;;14.95;1.80;;;4.80;99.90;;;;;;5027177;28;20514;-74
2022/04/09 00:32:45;;;;;;;4.72;1.45;;;4.80;99.90;;;;;;5006654;28;20520;-74
2022/04/09 00:35:11;;;;;;;11.07;2.00;;;4.80;99.90;;;;;;5007749;28;20048;-73
2022/04/09 00:37:44;;;;;;;11.73;1.60;;;4.80;99.90;;;;;;5026680;28;20489;-74
2022/04/09 00:40:12;;;;;;;10.40;1.73;;;4.80;99.90;;;;;;5006478;28;20034;-73
2022/04/09 00:42:41;;;;;;;9.60;1.80;;;4.80;99.90;;;;;;5008300;28;20046;-74
2022/04/09 00:45:08;;;;;;;3.13;0.82;;;4.90;99.90;;;;;;5009935;28;20040;-75
2022/04/09 00:47:35;;;;;;;5.53;1.00;;;4.90;99.90;;;;;;5029198;28;20048;-74
2022/04/09 00:50:02;;;;;;;3.78;0.98;;;4.90;99.90;;;;;;5028418;28;20037;-75
2022/04/09 00:52:29;;;;;;;3.30;0.80;;;4.80;99.90;;;;;;5011201;28;20037;-74
2022/04/09 00:54:56;;;;;;;6.15;1.30;;;4.80;99.90;;;;;;5026829;28;20057;-74
2022/04/09 00:57:25;;;;;;;2.78;0.73;;;4.70;99.90;;;;;;5005575;28;20057;-73
2022/04/09 00:59:54;;;;;;;6.55;1.00;;;4.70;99.90;;;;;;5027141;28;20053;-73
2022/04/09 01:02:20;;;;;;;6.22;2.13;;;4.70;99.90;;;;;;5027979;28;20052;-74
2022/04/09 01:04:47;;;;;;;5.18;1.00;;;4.60;99.90;;;;;;5010890;28;20552;-73
2022/04/09 01:07:13;;;;;;;5.85;1.10;;;4.50;99.90;;;;;;5009330;28;20168;-74
2022/04/09 01:09:39;;;;;;;6.78;1.33;;;4.50;99.90;;;;;;5006817;28;20045;-74
2022/04/09 01:12:05;;;;;;;8.27;1.33;;;4.40;99.90;;;;;;5008873;28;20099;-73
2022/04/09 01:14:34;;;;;;;14.25;2.05;;;4.40;99.90;;;;;;5007337;28;20461;-73
2022/04/09 01:17:02;;;;;;;8.88;1.20;;;4.30;99.90;;;;;;5011780;28;20045;-73
2022/04/09 01:19:28;;;;;;;10.68;1.65;;;4.30;99.90;;;;;;5006007;28;20508;-73
2022/04/09 01:21:58;;;;;;;12.07;1.67;;;4.30;99.90;;;;;;5008870;28;20065;-73
2022/04/09 01:24:24;;;;;;;5.50;1.30;;;4.30;99.90;;;;;;5026405;28;20489;-73
2022/04/09 01:26:50;;;;;;;9.30;1.58;;;4.40;99.90;;;;;;5005851;28;20053;-73
2022/04/09 01:29:16;;;;;;;14.95;1.58;;;4.50;99.90;;;;;;5023034;28;20417;-74
2022/04/09 01:31:41;;;;;;;9.70;1.30;;;4.60;99.90;;;;;;5027254;28;20455;-73
2022/04/09 01:34:08;;;;;;;9.50;1.85;;;4.60;99.90;;;;;;5022141;28;20038;-74
2022/04/09 01:36:34;;;;;;;9.55;1.98;;;4.60;99.90;;;;;;5006202;28;20409;-73
2022/04/09 01:38:59;;;;;;;9.60;2.40;;;4.60;99.90;;;;;;5022230;28;20045;-74
2022/04/09 01:41:25;;;;;;;7.10;1.17;;;4.60;99.90;;;;;;5023545;28;20041;-74
2022/04/09 01:43:51;;;;;;;8.23;1.50;;;4.60;99.90;;;;;;5024281;28;20124;-73
2022/04/09 01:46:16;;;;;;;9.27;1.70;;;4.60;99.90;;;;;;5021550;28;20056;-73
2022/04/09 01:48:43;;;;;;;7.18;1.77;;;4.60;99.90;;;;;;5001723;28;20065;-73
2022/04/09 01:51:08;;;;;;;10.57;1.58;;;4.50;99.90;;;;;;5007287;28;20406;-73
2022/04/09 01:53:34;;;;;;;15.75;2.63;;;4.50;99.90;;;;;;5005015;28;20056;-73
2022/04/09 01:56:00;;;;;;;8.63;1.45;;;4.50;99.90;;;;;;5025798;28;20455;-74
2022/04/09 01:58:25;;;;;;;10.68;2.30;;;4.50;99.90;;;;;;5021602;28;20037;-73
2022/04/09 02:00:57;;;;;;;4.45;1.30;;;4.50;99.90;;;;;;5008819;28;20661;-73
2022/04/09 02:03:23;;;;;;;6.43;1.67;;;4.70;99.90;;;;;;5026083;28;20155;-73
2022/04/09 02:05:49;;;;;;;7.30;1.30;;;4.70;99.90;;;;;;5009401;28;20564;-73
2022/04/09 02:08:14;;;;;;;13.38;2.42;;;4.80;99.90;;;;;;5004802;28;20714;-73
2022/04/09 02:10:40;;;;;;;8.82;1.10;;;4.70;99.90;;;;;;5008131;28;20067;-74
2022/04/09 02:13:13;;;;;;;11.07;1.23;;;4.70;99.90;;;;;;5007815;28;20065;-74
2022/04/09 02:15:38;;;;;;;4.22;1.60;;;4.60;99.90;;;;;;5026392;28;20444;-73
2022/04/09 02:18:04;;;;;;;11.15;2.42;;;4.60;99.90;;;;;;5008841;28;20053;-74
2022/04/09 02:20:30;;;;;;;10.35;1.38;;;4.60;99.90;;;;;;5007964;28;20175;-73
2022/04/09 02:22:56;;;;;;;15.18;1.90;;;4.50;99.90;;;;;;5004778;28;20045;-72
2022/04/09 02:25:22;;;;;;;5.63;1.40;;;4.50;99.90;;;;;;5008538;28;20539;-74
2022/04/09 02:27:47;;;;;;;8.88;1.52;;;4.50;99.90;;;;;;5024132;28;20038;-73
2022/04/09 02:30:14;;;;;;;5.10;1.55;;;4.40;99.90;;;;;;5007032;28;20079;-73
2022/04/09 02:32:51;;;;;;;10.70;1.50;;;4.40;99.90;;;;;;5006433;28;20053;-73
2022/04/09 02:35:17;;;;;;;12.50;1.63;;;4.30;99.90;;;;;;5025070;28;20704;-74
2022/04/09 02:37:43;;;;;;;12.85;1.75;;;4.30;99.90;;;;;;5008311;28;20417;-73
2022/04/09 02:40:10;;;;;;;12.85;3.70;;;4.30;99.90;;;;;;5003000;28;20045;-73
2022/04/09 02:42:37;;;;;;;9.13;1.45;;;4.30;99.90;;;;;;5003334;28;20050;-73
2022/04/09 02:45:04;;;;;;;10.07;1.48;;;4.30;99.90;;;;;;5002961;28;20527;-73
2022/04/09 02:47:31;;;;;;;13.90;1.98;;;4.20;99.90;;;;;;5006904;28;20046;-73
2022/04/09 02:49:58;;;;;;;12.95;2.05;;;4.20;99.90;;;;;;5006098;28;20038;-73
2022/04/09 02:52:27;;;;;;;5.40;1.50;;;4.20;99.90;;;;;;5005894;28;20042;-74
2022/04/09 02:54:53;;;;;;;9.43;1.55;;;4.20;99.90;;;;;;5005486;28;20057;-73
2022/04/09 02:57:18;;;;;;;10.43;1.85;;;4.10;99.90;;;;;;5005645;28;20050;-73
2022/04/09 02:59:44;;;;;;;7.75;2.45;;;4.10;99.90;;;;;;5005300;28;20041;-73
2022/04/09 03:02:10;;;;;;;15.70;2.65;;;4.10;99.90;;;;;;5004919;28;20125;-73
2022/04/09 03:04:35;;;;;;;13.40;2.15;;;4.10;99.90;;;;;;5006726;28;20050;-73
2022/04/09 03:07:01;;;;;;;12.10;1.80;;;4.10;99.90;;;;;;5008022;28;20128;-75
2022/04/09 03:09:26;;;;;;;12.70;2.72;;;4.10;99.90;;;;;;5006778;28;20048;-73
2022/04/09 03:11:53;;;;;;;9.13;1.70;;;4.10;99.90;;;;;;5008142;28;20420;-73
2022/04/09 03:14:20;;;;;;;7.35;1.25;;;4.10;99.90;;;;;;5008994;28;20038;-73
2022/04/09 03:16:45;;;;;;;9.18;1.30;;;4.10;99.90;;;;;;5004340;28;20108;-73
2022/04/09 03:19:11;;;;;;;7.93;1.65;;;4.10;99.90;;;;;;5007037;28;20034;-74
2022/04/09 03:21:37;;;;;;;9.90;2.38;;;4.10;99.90;;;;;;5005621;28;20042;-73
2022/04/09 03:24:03;;;;;;;10.05;2.38;;;4.10;99.90;;;;;;5001216;28;20047;-74
2022/04/09 03:26:28;;;;;;;9.82;1.88;;;4.10;99.90;;;;;;5007171;28;20803;-73
2022/04/09 03:28:54;;;;;;;11.25;1.50;;;4.10;99.90;;;;;;5009441;28;20046;-73
2022/04/09 03:31:19;;;;;;;7.90;2.00;;;4.10;99.90;;;;;;5003577;28;20080;-73
2022/04/09 03:33:47;;;;;;;10.48;1.33;;;4.10;99.90;;;;;;5008198;28;20038;-73
2022/04/09 03:36:13;;;;;;;15.90;1.80;;;4.10;99.90;;;;;;5007465;28;20042;-73
2022/04/09 03:38:43;;;;;;;9.25;1.52;;;4.10;99.90;;;;;;5009735;28;20041;-74
2022/04/09 03:41:09;;;;;;;11.50;2.67;;;4.10;99.90;;;;;;5028271;28;20087;-73
2022/04/09 03:43:35;;;;;;;16.20;2.10;;;4.10;99.90;;;;;;5029236;28;20045;-73
2022/04/09 03:46:01;;;;;;;16.35;1.98;;;4.10;99.90;;;;;;5009297;28;20045;-73
2022/04/09 03:48:27;;;;;;;8.27;2.13;;;4.20;99.90;;;;;;5006104;28;20095;-73
2022/04/09 03:50:52;;;;;;;7.82;1.63;;;4.20;99.90;;;;;;5009759;28;20049;-72
2022/04/09 03:53:20;;;;;;;11.50;1.90;;;4.20;99.90;;;;;;5007627;28;20050;-73
2022/04/09 03:55:49;;;;;;;11.82;1.77;;;4.20;99.90;;;;;;5026245;28;20042;-73
2022/04/09 03:58:16;;;;;;;11.60;1.63;;;4.30;99.90;;;;;;5025571;28;20034;-73
2022/04/09 04:00:42;;;;;;;14.52;2.42;;;4.40;99.90;;;;;;5025152;28;20501;-73
2022/04/09 04:03:09;;;;;;;6.03;1.50;;;4.40;99.90;;;;;;5029366;28;20111;-73
2022/04/09 04:05:38;;;;;;;10.70;2.15;;;4.50;99.90;;;;;;4991715;28;20049;-73
2022/04/09 04:08:05;;;;;;;10.10;2.08;;;4.50;99.90;;;;;;5009853;28;20041;-73
2022/04/09 04:10:32;;;;;;;11.43;1.80;;;4.60;99.90;;;;;;5027952;28;20081;-73
2022/04/09 04:12:58;;;;;;;13.05;1.50;;;4.60;99.90;;;;;;5030262;28;20038;-72
2022/04/09 04:15:23;;;;;;;7.15;1.67;;;4.60;99.90;;;;;;5027370;28;20097;-73
2022/04/09 04:17:49;;;;;;;7.25;1.25;;;4.50;99.90;;;;;;5029527;28;20069;-73
2022/04/09 04:20:15;;;;;;;13.70;1.83;;;4.50;99.90;;;;;;5005162;28;20468;-73
2022/04/09 04:22:41;;;;;;;5.47;1.60;;;4.50;99.90;;;;;;5010756;28;20072;-73
2022/04/09 04:25:07;;;;;;;13.73;1.45;;;4.50;99.90;;;;;;5009552;28;20073;-74
2022/04/09 04:27:33;;;;;;;5.80;1.40;;;4.50;99.90;;;;;;5027844;28;20049;-73
2022/04/09 04:30:00;;;;;;;7.85;1.88;;;4.50;99.90;;;;;;5010297;28;20043;-73
2022/04/09 04:32:26;;;;;;;11.55;1.65;;;4.50;99.90;;;;;;5029694;28;20144;-73
2022/04/09 04:34:52;;;;;;;4.40;1.50;;;4.50;99.90;;;;;;5026918;28;20041;-73
2022/04/09 04:37:17;;;;;;;3.38;0.75;;;4.50;99.90;;;;;;5010945;28;20064;-74
2022/04/09 04:39:43;;;;;;;1.25;0.45;;;4.50;99.90;;;;;;5006539;28;20052;-73
2022/04/09 04:42:09;;;;;;;4.03;0.50;;;4.40;99.90;;;;;;5009236;28;20096;-72
2022/04/09 04:44:34;;;;;;;5.15;0.90;;;4.40;99.90;;;;;;5010449;28;20040;-72
2022/04/09 04:47:00;;;;;;;3.08;0.93;;;4.30;99.90;;;;;;5027861;28;20136;-72
2022/04/09 04:49:26;;;;;;;3.17;0.80;;;4.30;99.90;;;;;;5008417;28;20037;-72
2022/04/09 04:51:51;;;;;;;7.07;1.10;;;4.30;99.90;;;;;;5009359;28;20128;-73
2022/04/09 04:54:17;;;;;;;9.07;1.58;;;4.30;99.90;;;;;;5008057;28;20046;-73
2022/04/09 04:56:43;;;;;;;7.75;1.85;;;4.40;99.90;;;;;;5009894;28;20099;-73
2022/04/09 04:59:08;;;;;;;10.40;1.50;;;4.40;99.90;;;;;;5027095;28;20038;-74
2022/04/09 05:01:37;;;;;;;6.75;2.17;;;4.50;99.90;;;;;;5025656;28;20137;-73
2022/04/09 05:04:03;;;;;;;9.10;1.50;;;4.50;99.90;;;;;;5009576;28;20049;-73
2022/04/09 05:06:31;;;;;;;10.27;1.80;;;4.60;99.90;;;;;;5010134;28;20484;-73
2022/04/09 05:08:59;;;;;;;9.57;1.35;;;4.50;99.90;;;;;;5011557;28;20496;-73
2022/04/09 05:11:26;;;;;;;9.13;1.40;;;4.50;99.90;;;;;;5010840;28;20469;-73
2022/04/09 05:13:53;;;;;;;11.75;2.00;;;4.50;99.90;;;;;;5000872;28;21331;-73
2022/04/09 05:16:18;;;;;;;8.55;1.58;;;4.50;99.90;;;;;;5025190;28;20102;-74
2022/04/09 05:18:44;;;;;;;8.35;2.03;;;4.50;99.90;;;;;;5005280;28;20065;-73
2022/04/09 05:21:10;;;;;;;11.43;1.67;;;4.40;99.90;;;;;;5027037;28;20124;-73
2022/04/09 05:23:36;;;;;;;9.85;1.92;;;4.50;99.90;;;;;;5025738;28;20509;-73
2022/04/09 05:26:02;;;;;;;10.13;2.05;;;4.50;99.90;;;;;;5009775;28;20056;-74
2022/04/09 05:28:27;;;;;;;9.95;1.98;;;4.40;99.90;;;;;;5009075;28;20045;-74
2022/04/09 05:30:53;;;;;;;13.18;2.42;;;4.50;99.90;;;;;;5008254;28;20056;-74
2022/04/09 05:33:19;;;;;;;17.33;2.10;;;4.50;99.90;;;;;;5007482;28;20544;-73
2022/04/09 05:35:45;;;;;;;12.38;2.47;;;4.60;99.90;;;;;;5026031;28;20045;-72
2022/04/09 05:38:11;;;;;;;11.63;2.35;;;4.60;99.90;;;;;;5009012;28;20041;-71
2022/04/09 05:40:42;;;;;;;10.90;2.00;;;4.70;99.90;;;;;;5009107;28;20088;-75
2022/04/09 05:43:07;;;;;;;18.35;3.05;;;4.80;99.90;;;;;;5007279;28;20107;-73
2022/04/09 05:45:36;;;;;;;10.05;1.92;;;4.90;99.90;;;;;;5006581;28;20046;-74
2022/04/09 05:48:03;;;;;;;9.02;1.83;;;4.90;99.90;;;;;;5009692;28;20071;-72
2022/04/09 05:50:29;;;;;;;9.60;1.85;;;4.90;99.90;;;;;;5008999;28;20060;-72
2022/04/09 05:52:55;;;;;;;11.48;1.73;;;5.00;99.90;;;;;;5006469;28;20481;-72
2022/04/09 05:55:21;;;;;;;9.85;1.73;;;5.10;99.90;;;;;;5005838;28;20060;-72
2022/04/09 05:57:47;;;;;;;15.27;2.05;;;5.30;99.90;;;;;;5010733;28;20043;-72
2022/04/09 06:00:14;;;;;;;9.73;2.00;;;5.50;99.90;;;;;;5004647;28;20053;-72
2022/04/09 06:02:39;;;;;;;14.05;2.03;;;5.70;99.90;;;;;;5008668;28;20561;-72
2022/04/09 06:05:09;;;;;;;5.30;1.42;;;5.70;99.90;;;;;;5027914;28;20045;-73
2022/04/09 06:07:36;;;;;;;7.60;1.40;;;5.40;99.90;;;;;;5013802;28;20424;-72
2022/04/09 06:10:05;;;;;;;10.48;1.65;;;5.10;99.90;;;;;;5008660;28;21444;-73
2022/04/09 06:12:32;;;;;;;6.78;1.83;;;4.90;99.90;;;;;;5004743;28;20076;-72
2022/04/09 06:14:58;;;;;;;13.27;1.77;;;4.80;99.90;;;;;;5007228;28;20509;-71
2022/04/09 06:17:27;;;;;;;13.02;2.60;;;4.80;99.90;;;;;;5008973;28;20073;-72
2022/04/09 06:19:53;;;;;;;9.32;1.95;;;4.80;99.90;;;;;;5026108;28;20049;-71
2022/04/09 06:22:19;;;;;;;9.60;1.50;;;4.80;99.90;;;;;;5006053;28;20048;-71
2022/04/09 06:24:44;;;;;;;8.82;1.70;;;5.00;99.90;;;;;;5022506;28;20041;-71
2022/04/09 06:27:13;;;;;;;12.60;2.33;;;5.10;99.90;;;;;;4992707;28;20050;-71
2022/04/09 06:29:39;;;;;;;13.55;2.25;;;5.40;99.90;;;;;;5026439;28;20049;-71
2022/04/09 06:32:05;;;;;;;20.25;4.22;;;5.50;99.90;;;;;;5007768;28;20045;-72
2022/04/09 06:34:31;;;;;;;12.90;1.95;;;5.80;99.90;;;;;;5024411;28;20048;-71
2022/04/09 06:36:57;;;;;;;9.98;2.03;;;5.90;99.90;;;;;;5025920;28;20061;-70
2022/04/09 06:39:23;;;;;;;8.98;1.77;;;6.00;99.90;;;;;;5006853;28;20050;-70
2022/04/09 06:41:52;;;;;;;6.22;1.20;;;6.00;99.90;;;;;;5011797;28;20042;-71
2022/04/09 06:44:18;;;;;;;4.47;1.08;;;6.00;99.90;;;;;;5011036;28;20045;-71
2022/04/09 06:46:45;;;;;;;6.55;1.20;;;6.10;99.90;;;;;;5008741;28;20045;-72
2022/04/09 06:49:15;;;;;;;7.75;1.95;;;6.00;99.90;;;;;;5030901;28;20501;-71
2022/04/09 06:51:40;;;;;;;12.93;2.10;;;5.80;99.90;;;;;;4997047;28;20049;-71
2022/04/09 06:54:06;;;;;;;9.73;2.08;;;5.70;99.90;;;;;;5030428;28;20056;-71
2022/04/09 06:56:32;;;;;;;6.28;1.40;;;5.60;99.90;;;;;;5010930;28;20435;-71
2022/04/09 06:58:58;;;;;;;10.45;1.65;;;5.60;99.90;;;;;;5008971;28;20154;-72
2022/04/09 07:01:25;;;;;;;12.02;1.92;;;5.80;99.90;;;;;;5011757;28;20132;-72
2022/04/09 07:03:51;;;;;;;9.90;1.60;;;6.00;99.90;;;;;;5008829;28;20044;-71
2022/04/09 07:06:17;;;;;;;5.80;1.50;;;6.10;99.90;;;;;;5031629;28;20184;-74
2022/04/09 07:08:43;;;;;;;10.95;2.15;;;6.30;99.90;;;;;;5017854;28;20041;-73
2022/04/09 07:11:09;;;;;;;12.57;1.40;;;6.40;99.90;;;;;;5032871;28;20095;-72
2022/04/09 07:13:34;;;;;;;7.75;2.22;;;6.60;99.90;;;;;;5027472;28;20041;-73
2022/04/09 07:16:00;;;;;;;12.18;1.80;;;6.80;99.90;;;;;;5028557;28;20073;-72
2022/04/09 07:18:28;;;;;;;9.85;1.58;;;6.90;99.90;;;;;;5011174;28;20041;-72
2022/04/09 07:20:54;;;;;;;3.88;1.10;;;7.00;99.90;;;;;;5030489;28;20080;-73
2022/04/09 07:23:19;;;;;;;7.88;1.65;;;7.10;99.90;;;;;;5033439;28;20100;-72
2022/04/09 07:25:45;;;;;;;8.48;2.35;;;7.20;99.90;;;;;;5011213;28;20052;-74
2022/04/09 07:28:10;;;;;;;11.88;2.15;;;7.30;99.90;;;;;;5027869;28;20049;-73
2022/04/09 07:30:36;;;;;;;11.63;1.35;;;7.40;99.90;;;;;;5010159;28;20462;-72
2022/04/09 07:33:02;;;;;;;9.07;1.38;;;7.60;99.90;;;;;;5010209;28;20068;-72
2022/04/09 07:35:28;;;;;;;6.47;1.75;;;7.60;99.90;;;;;;5010736;28;20064;-72
2022/04/09 07:37:56;;;;;;;8.75;1.33;;;7.40;99.90;;;;;;5025169;28;20045;-72
2022/04/09 07:40:25;;;;;;;8.15;1.35;;;7.30;99.90;;;;;;5010700;28;20466;-70
2022/04/09 07:42:53;;;;;;;9.00;1.48;;;7.20;99.90;;;;;;5009706;28;20390;-70
2022/04/09 07:45:18;;;;;;;9.15;1.45;;;7.30;99.90;;;;;;4984272;28;20327;-72
2022/04/09 07:47:45;;;;;;;13.07;1.40;;;7.30;99.90;;;;;;4985698;28;20054;-73
2022/04/09 07:50:12;;;;;;;5.55;1.30;;;7.30;99.90;;;;;;4992273;28;20038;-73
2022/04/09 07:52:45;;;;;;;5.47;1.23;;;7.40;99.90;;;;;;4984846;28;20030;-72
2022/04/09 07:55:14;;;;;;;5.97;1.15;;;7.50;99.90;;;;;;4985907;28;20050;-73
2022/04/09 07:57:41;;;;;;;5.32;1.00;;;7.60;99.90;;;;;;4998623;28;20190;-73
2022/04/09 08:00:07;;;;;;;4.38;1.08;;;7.60;99.90;;;;;;4986054;28;20125;-72
2022/04/09 08:02:34;;;;;;;8.30;1.48;;;7.70;99.90;;;;;;4999786;28;20044;-72
2022/04/09 08:05:00;;;;;;;3.92;1.00;;;7.70;99.90;;;;;;4998452;28;20077;-72
2022/04/09 08:07:26;;;;;;;10.88;1.35;;;7.80;99.90;;;;;;4999019;28;20042;-71
2022/04/09 08:09:51;;;;;;;14.45;3.25;;;7.80;99.90;;;;;;4997125;28;20049;-73
2022/04/09 08:12:17;;;;;;;6.15;1.10;;;7.90;99.90;;;;;;4999638;28;20056;-72
2022/04/09 08:14:43;;;;;;;9.98;1.50;;;7.90;99.90;;;;;;4997555;28;20058;-73
2022/04/09 08:17:09;;;;;;;15.50;2.20;;;8.00;99.90;;;;;;4991824;28;20065;-72
2022/04/09 08:19:35;;;;;;;10.10;1.70;;;8.10;99.90;;;;;;4993209;28;20104;-72
2022/04/09 08:22:04;;;;;;;9.10;2.92;;;8.10;99.90;;;;;;4996874;28;20050;-73
2022/04/09 08:24:30;;;;;;;9.90;2.08;;;8.10;99.90;;;;;;4997031;28;20486;-73
2022/04/09 08:26:56;;;;;;;13.48;2.67;;;8.30;99.90;;;;;;5000992;28;20187;-74
2022/04/09 08:29:23;;;;;;;10.27;2.30;;;8.30;99.90;;;;;;4991811;28;20046;-73
2022/04/09 08:31:49;;;;;;;13.48;2.30;;;8.30;99.90;;;;;;4994345;28;20413;-72
2022/04/09 08:34:15;;;;;;;9.77;1.88;;;8.20;99.90;;;;;;4995705;28;20125;-72
2022/04/09 08:36:41;;;;;;;13.38;1.85;;;8.10;99.90;;;;;;4993526;28;20057;-73
2022/04/09 08:39:06;;;;;;;8.90;2.60;;;7.90;99.90;;;;;;5003497;28;20050;-74
2022/04/09 08:41:36;;;;;;;8.65;1.55;;;7.90;99.90;;;;;;5029379;28;20134;-72
2022/04/09 08:44:02;;;;;;;10.88;2.22;;;8.10;99.90;;;;;;5010287;28;20405;-72
2022/04/09 08:46:28;;;;;;;12.75;2.05;;;8.30;99.90;;;;;;5010683;28;20045;-72
2022/04/09 08:48:57;;;;;;;11.82;2.03;;;8.40;99.90;;;;;;5009154;28;20609;-73
2022/04/09 08:51:23;;;;;;;12.20;1.90;;;8.40;99.90;;;;;;5026296;28;20038;-73
2022/04/09 08:53:50;;;;;;;8.55;2.00;;;8.40;99.90;;;;;;5007962;28;20050;-73
2022/04/09 08:56:18;;;;;;;8.88;2.20;;;8.50;99.90;;;;;;5025913;28;20051;-73
2022/04/09 08:58:44;;;;;;;9.98;2.03;;;8.70;99.90;;;;;;5008508;28;20077;-73
2022/04/09 09:01:10;;;;;;;8.07;1.05;;;8.50;99.90;;;;;;5008693;28;20065;-72
2022/04/09 09:03:35;;;;;;;7.95;1.63;;;8.20;99.90;;;;;;5007878;28;20132;-73
2022/04/09 09:06:02;;;;;;;7.65;1.67;;;8.30;99.90;;;;;;5024592;28;20129;-73
2022/04/09 09:08:39;;;;;;;7.25;2.00;;;8.40;99.90;;;;;;5027566;28;20037;-73
2022/04/09 09:11:05;;;;;;;7.78;1.45;;;8.60;99.90;;;;;;5003981;28;20065;-72
2022/04/09 09:13:46;;;;;;;8.35;1.42;;;8.70;99.90;;;;;;5009888;28;20064;-73
2022/04/09 09:16:23;;;;;;;6.80;1.40;;;8.80;99.90;;;;;;5027230;28;20132;-74
2022/04/09 09:18:51;;;;;;;8.40;2.13;;;9.00;99.90;;;;;;5025153;28;20044;-74
2022/04/09 09:21:18;;;;;;;9.93;1.98;;;9.00;99.90;;;;;;5026698;28;20037;-74
2022/04/09 09:23:44;;;;;;;12.27;2.03;;;9.10;99.90;;;;;;5027094;28;20044;-74
2022/04/09 09:26:18;;;;;;;5.82;1.80;;;9.20;99.90;;;;;;5010493;28;20041;-74
2022/04/09 09:28:54;;;;;;;11.73;2.42;;;9.40;99.90;;;;;;5026725;28;20106;-72
2022/04/09 09:31:20;;;;;;;14.48;1.98;;;9.40;99.90;;;;;;5004431;28;20132;-71
2022/04/09 09:33:49;;;;;;;10.50;1.73;;;9.40;99.90;;;;;;5026560;28;20049;-71
2022/04/09 09:36:14;;;;;;;12.55;2.03;;;9.20;99.90;;;;;;5009310;28;20046;-72
2022/04/09 09:38:40;;;;;;;8.10;1.77;;;8.90;99.90;;;;;;5007156;28;21020;-72
2022/04/09 09:41:23;;;;;;;8.57;1.40;;;8.70;99.90;;;;;;5023812;28;20485;-73
2022/04/09 09:44:01;;;;;;;8.23;2.00;;;8.50;99.90;;;;;;5025401;28;20068;-70
2022/04/09 09:46:26;;;;;;;9.38;1.85;;;8.00;99.90;;;;;;5027097;28;20214;-70
2022/04/09 09:48:52;;;;;;;12.40;1.70;;;7.60;99.90;;;;;;5027743;28;20181;-71
2022/04/09 09:51:23;;;;;;;9.13;1.88;;;7.40;99.90;;;;;;5009445;28;20038;-71
2022/04/09 09:53:49;;;;;;;8.07;1.60;;;7.20;99.90;;;;;;5027307;28;20076;-72
2022/04/09 09:56:39;;;;;;;12.45;2.03;;;7.10;99.90;;;;;;5026631;28;20389;-72
2022/04/09 09:59:13;;;;;;;10.82;1.98;;;6.90;99.90;;;;;;5025327;28;20041;-71
2022/04/09 10:01:43;;;;;;;7.95;1.42;;;7.00;99.90;;;;;;5010648;28;20314;-70
2022/04/09 10:04:14;;;;;;;7.93;1.42;;;7.20;99.90;;;;;;5027265;28;20041;-71
2022/04/09 10:06:43;;;;;;;9.10;1.52;;;7.60;99.90;;;;;;5007775;28;20050;-72
2022/04/09 10:09:11;;;;;;;8.50;1.52;;;8.00;99.90;;;;;;5008846;28;20557;-72
2022/04/09 10:11:43;;;;;;;10.98;1.95;;;8.30;99.90;;;;;;5009079;28;20064;-72
2022/04/09 10:14:12;;;;;;;7.50;1.38;;;8.40;99.90;;;;;;5025269;28;20033;-71
2022/04/09 10:16:38;;;;;;;6.28;1.42;;;8.60;99.90;;;;;;5028699;28;20044;-72
2022/04/09 10:19:05;;;;;;;9.52;1.80;;;8.80;99.90;;;;;;5007181;28;20080;-72
2022/04/09 10:21:37;;;;;;;3.60;1.10;;;8.90;99.90;;;;;;5024792;28;20053;-72
2022/04/09 10:24:05;;;;;;;8.00;1.40;;;9.10;99.90;;;;;;5024264;28;20707;-72
2022/04/09 10:26:31;;;;;;;11.23;1.55;;;9.20;99.90;;;;;;5025685;28;20049;-70
2022/04/09 10:29:06;;;;;;;6.47;1.52;;;9.30;99.90;;;;;;5005820;28;20038;-71
2022/04/09 10:31:33;;;;;;;6.03;1.35;;;9.30;99.90;;;;;;5025524;28;20049;-70
2022/04/09 10:34:00;;;;;;;4.68;0.90;;;9.20;99.90;;;;;;5007924;28;20074;-69
2022/04/09 10:36:41;;;;;;;6.68;0.85;;;9.20;99.90;;;;;;5025492;28;20046;-69
2022/04/09 10:39:29;;;;;;;7.13;1.05;;;9.00;99.90;;;;;;5004572;28;20046;-71
2022/04/09 10:41:55;;;;;;;5.90;1.15;;;9.00;99.90;;;;;;5025741;28;20049;-70
2022/04/09 10:44:43;;;;;;;8.23;1.40;;;9.10;99.90;;;;;;5008344;28;20069;-70
2022/04/09 10:47:11;;;;;;;5.22;1.40;;;9.30;99.90;;;;;;5026027;28;20065;-71
2022/04/09 10:49:37;;;;;;;6.63;1.67;;;9.30;99.90;;;;;;5005451;28;20087;-71
2022/04/09 10:52:16;;;;;;;9.93;1.30;;;9.40;99.90;;;;;;5007799;28;20049;-71
2022/04/09 10:55:09;;;;;;;6.25;1.05;;;9.70;99.90;;;;;;5005538;28;20046;-70
2022/04/09 10:57:43;;;;;;;8.77;1.23;;;9.70;99.90;;;;;;5025789;28;20825;-71
2022/04/09 11:00:31;;;;;;;8.68;1.45;;;9.40;99.90;;;;;;5006059;28;20057;-71
2022/04/09 11:03:15;;;;;;;11.85;1.65;;;9.10;99.90;;;;;;5008268;28;20049;-70
2022/04/09 11:05:43;;;;;;;5.72;1.80;;;9.10;99.90;;;;;;5024592;28;20033;-70
2022/04/09 11:08:14;;;;;;;8.55;1.70;;;9.20;99.90;;;;;;5006403;28;20041;-71
2022/04/09 11:10:41;;;;;;;11.70;1.83;;;9.30;99.90;;;;;;5025964;28;20065;-70
2022/04/09 11:13:10;;;;;;;10.90;1.70;;;9.50;99.90;;;;;;5008531;28;20046;-71
2022/04/09 11:15:38;;;;;;;6.28;1.30;;;9.60;99.90;;;;;;5005075;28;20057;-70
2022/04/09 11:18:03;;;;;;;2.80;0.70;;;9.40;99.90;;;;;;5006572;28;20077;-69
2022/04/09 11:20:34;;;;;;;4.45;0.90;;;9.00;99.90;;;;;;5004834;28;20096;-70
2022/04/09 11:23:14;;;;;;;5.88;1.13;;;8.80;99.90;;;;;;5007955;28;20147;-71
2022/04/09 11:25:42;;;;;;;2.60;1.00;;;8.70;99.90;;;;;;5024800;28;20057;-70
2022/04/09 11:28:12;;;;;;;1.92;0.60;;;8.70;99.90;;;;;;5026567;28;20050;-70
2022/04/09 11:30:49;;;;;;;3.88;0.55;;;8.40;99.90;;;;;;5009932;28;20371;-71
2022/04/09 11:33:15;;;;;;;3.20;0.73;;;7.90;99.90;;;;;;5030072;28;20045;-71
2022/04/09 11:35:41;;;;;;;4.38;0.77;;;7.50;99.90;;;;;;5030164;28;20108;-70
2022/04/09 11:38:10;;;;;;;3.10;0.73;;;7.30;99.90;;;;;;5008265;28;20057;-71
2022/04/09 11:40:42;;;;;;;4.13;0.80;;;7.20;99.90;;;;;;5029414;28;20516;-76
2022/04/09 11:43:08;;;;;;;4.90;1.05;;;7.20;99.90;;;;;;5005990;28;20571;-73
2022/04/09 11:45:34;;;;;;;4.80;0.85;;;7.40;99.90;;;;;;5010915;28;20118;-72
2022/04/09 11:48:01;;;;;;;5.60;1.73;;;7.60;99.90;;;;;;5006868;28;20077;-69
2022/04/09 11:50:37;;;;;;;7.53;1.20;;;7.60;99.90;;;;;;5012285;28;20041;-69
2022/04/09 11:53:11;;;;;;;3.85;1.10;;;7.60;99.90;;;;;;5008297;28;20128;-69
2022/04/09 11:55:37;;;;;;;;;;;7.80;99.90;;;;;;5012299;28;20381;-68
2022/04/09 11:58:02;;;;;;;2.42;0.60;;;8.10;99.90;;;;;;5028693;28;20345;-69
2022/04/09 12:00:30;;;;;;;2.70;0.85;;;8.40;99.90;;;;;;5012704;28;20616;-67
2022/04/09 12:03:04;;;;;;;2.92;0.60;;;8.60;99.90;;;;;;5009867;28;20049;-67
2022/04/09 12:05:46;;;;;;;2.15;0.70;;;8.80;99.90;;;;;;5027018;28;20045;-68
2022/04/09 12:08:14;;;;;;;1.60;0.52;;;8.90;99.90;;;;;;5028618;28;20094;-68
2022/04/09 12:10:52;;;;;;;6.20;0.85;;;9.10;99.90;;;;;;5011834;28;20092;-67
2022/04/09 12:13:26;;;;;;;3.13;1.10;;;9.20;99.90;;;;;;5026729;28;20045;-68
2022/04/09 12:15:52;;;;;;;3.53;1.30;;;9.30;99.90;;;;;;5027715;28;20128;-68
2022/04/09 12:18:26;;;;;;;7.20;1.25;;;9.40;99.90;;;;;;5024875;28;20565;-69
2022/04/09 12:20:52;;;;;;;6.88;1.20;;;9.40;99.90;;;;;;5027723;28;20064;-68
2022/04/09 12:23:32;;;;;;;3.55;0.80;;;9.30;99.90;;;;;;5009633;28;20033;-68
2022/04/09 12:25:58;;;;;;;9.25;1.88;;;9.40;99.90;;;;;;5006715;28;20037;-68
2022/04/09 12:28:31;;;;;;;7.20;2.00;;;9.40;99.90;;;;;;5009879;28;20124;-68
2022/04/09 12:31:00;;;;;;;5.65;1.02;;;9.40;99.90;;;;;;5026766;28;20354;-68
2022/04/09 12:33:25;;;;;;;5.25;1.00;;;9.20;99.90;;;;;;5010986;28;20112;-69
2022/04/09 12:36:06;;;;;;;2.13;0.60;;;9.20;99.90;;;;;;5008403;28;20249;-69
2022/04/09 12:38:36;;;;;;;2.42;0.60;;;9.30;99.90;;;;;;5028061;28;20472;-68
2022/04/09 12:41:05;;;;;;;2.28;0.55;;;9.40;99.90;;;;;;5026678;28;20260;-72
2022/04/09 12:43:32;;;;;;;2.03;0.60;;;9.50;99.90;;;;;;5007432;28;20792;-68
2022/04/09 12:46:06;;;;;;;3.75;1.00;;;9.40;99.90;;;;;;5028021;28;20049;-71
2022/04/09 12:48:43;;;;;;;3.45;0.93;;;9.20;99.90;;;;;;5006803;28;20038;-69
2022/04/09 12:51:23;;;;;;;3.25;0.85;;;9.10;99.90;;;;;;5008628;28;20418;-70
2022/04/09 12:53:49;;;;;;;5.75;0.93;;;8.80;99.90;;;;;;5010923;28;20045;-69
2022/04/09 12:56:16;;;;;;;4.75;0.85;;;8.70;99.90;;;;;;5010794;28;20045;-71